Kevin Lukaku

Chief Scout - Sint-Truiden
3 Apr 2028
Monday
Process

Personality

Adaptability (10) Ambition (6) Controversy (7) Loyalty (12) Pressure (4) Professionalism (13) Sportsmanship (17) Temperament (18)

Profile

Coaching Style Democratic
License National B
Determination 8
Man Management 7
Motivating 5
Discipline 7
Job Satisfaction
100%
Fatigue
0%
Role Chief Scout
Wage 49.6K p/w
Contract 14.03.2029

Performance

Behaviour Good
Training Effectiveness
41%
Player Development
30%
Injury Prevention
20%
Tactical Implementation
30%

Recent Events

Assessed a player 56d ago
Attended a recruitment meeting 56d ago
Recommended a transfer target 56d ago
Recommended a transfer target 56d ago
Recommended a transfer target 56d ago
Attended a recruitment meeting 56d ago
Presented a dossier to the board 56d ago

Currently Monitoring

74
Player Club Status Ability Confidence Watched Last Observed Latest Vote
Louka Vanderbruggen De Graafschap Lost 108 / 115 40% 1 31.01.2028 -
Nathan Doualla Canon Yaounde Active 88 / 99 40% 1 31.01.2028 -
Herba Guirassy Monaco Active 129 / 126 40% 1 31.01.2028 -
Harouna Djibirin Angers SCO Active 124 / 127 40% 1 19.01.2028 -
Oscar Schwartau Norwich City Active 134 / 137 40% 1 19.01.2028 -
Zane Albarus Colchester United Active 101 / 108 40% 1 19.01.2028 -
Dylan Dassy Waasland-Beveren Active 106 / 102 76% 1 10.01.2028 Approve
Valentino Acuña Newell's Old Boys Active 112 / 119 40% 1 10.01.2028 -
Jens Mathijsen Willem II Active 112 / 120 40% 1 10.01.2028 -
Josué Kongolo Racing Genk Active 113 / 122 76% 1 07.01.2028 Approve
Luke Baartman Ghazl El Mahalla Negotiating 117 / 113 40% 1 01.01.2028 -
Risilanu Ismail El-Kanemi Warriors Active 96 / 86 40% 1 01.01.2028 -
Elie N'Gatta Sochaux Active 105 / 102 40% 3 16.07.2027 -
Teo Rodríguez Pagano San Lorenzo Active 113 / 122 40% 1 16.07.2027 -
Jan Bürger Preston Active 121 / 120 40% 2 15.07.2027 -
Pape Cabral Monaco Active 108 / 123 40% 2 15.07.2027 -
Daniel Banjaqui Benfica Active 123 / 131 40% 1 14.07.2027 -
Milan Roganović Partizan Active 113 / 128 40% 3 11.07.2027 -
Alessandro Ventre Vis Pesaro Active 100 / 96 40% 1 11.07.2027 -
Yassine Khalifi Charleroi Active 115 / 121 40% 4 10.07.2027 -
Mathis Amougou RC Strasbourg Active 113 / 121 40% 1 10.07.2027 -
Riley Owen Bristol Rovers Active 101 / 113 40% 2 09.07.2027 -
Pedro Vian Seewald Arzignano Active 94 / 103 40% 1 09.07.2027 -
Ismaël Baouf Cambuur Active 120 / 124 40% 3 08.07.2027 -
Alessio Insignito Spezia Active 92 / 104 40% 2 08.07.2027 -
Maël Monyebe Gazelle Garoua Active 74 / 81 40% 1 06.07.2027 -
Godwin Oham Warri Wolves Active 89 / 84 40% 1 06.07.2027 -
Mats Egbring Heerenveen Active 99 / 111 40% 2 05.07.2027 -
Chibueze Oputa Rangers International Active 79 / 89 40% 3 05.07.2027 -
Marius Courcoul Olympique de Marseille Active 112 / 130 40% 2 04.07.2027 -
Fabián Correa Barranquilla Active 92 / 88 40% 1 04.07.2027 -
Joe Bauress Grimsby Town Active 94 / 90 40% 1 04.07.2027 -
Mauricio Amaro Atlanta United FC Active 114 / 124 40% 1 02.07.2027 -
Arsene Mekila Gazelle Garoua Active 73 / 87 40% 2 30.06.2027 -
Joe Knight Stevenage Active 104 / 103 40% 3 30.06.2027 -
Dylan Lawlor Cardiff City Active 116 / 126 40% 4 29.06.2027 -
Gady Beyuku Modena Active 109 / 122 40% 2 29.06.2027 -
Lucas Mbamba Westerlo Active 92 / 101 40% 2 28.06.2027 -
Marius Louër Angers SCO Active 98 / 115 40% 2 25.06.2027 -
Kazunari Kita Real Sociedad Active 97 / 110 40% 2 25.06.2027 -
Cheveyo Tsawa Club Brugge Active 119 / 127 40% 2 24.06.2027 -
Bahmed Deuff FC Metz Active 112 / 121 40% 1 23.06.2027 -
Ezra Mayers West Ham United Active 117 / 127 40% 2 19.06.2027 -
Bernardo Lima Porto Active 96 / 109 40% 1 16.06.2027 -
Joseph Elie Tiba Panthere du Nde Active 81 / 84 40% 1 16.06.2027 -
Miguel Figueiredo Benfica Active 106 / 118 40% 2 14.06.2027 -
Owen Foye Swindon Town Active 84 / 84 40% 1 13.06.2027 -
Kyllian Antonio RC Lens Active 104 / 123 40% 1 10.06.2027 -
T-Jay Parfitt Colchester United Active 96 / 92 40% 1 10.06.2027 -
Afriyie Sulemana Hasaacas Active 99 / 94 40% 1 06.06.2027 -
Emmanuel Garcia Chamois Niortais Active 108 / 111 40% 1 29.01.2027 -
Jamie Wähling Hibernians Active 74 / 91 40% 1 28.01.2027 -
Raymond Agyemang Aduana Stars Active 80 / 89 40% 1 27.01.2027 -
Abdelhamid Ait Boudlal Stade Rennais Active 115 / 119 40% 1 26.01.2027 -
Ousmane Touré LOSC Lille Active 110 / 120 40% 4 20.01.2027 -
Massien Ghaddari Utrecht Active 109 / 117 40% 2 20.01.2027 -
Selim Pellissard Sochaux Active 91 / 87 40% 1 11.01.2027 -
César Obongo Dijon Active 81 / 92 40% 1 11.01.2027 -
Lucas Agazzi Benfica Active 116 / 126 40% 1 06.01.2027 -
Joseph Namatane FC Metz Active 90 / 95 40% 1 05.01.2027 -
Kyriani Sabbe Club Brugge Active 114 / 127 40% 1 02.01.2027 -
Jorge Salinas Racing Santander Active 115 / 127 40% 1 01.01.2027 -
Sékou Doucouré FC Nantes Active 88 / 94 40% 1 30.08.2026 -
Ian Garguez Palestino Active 99 / 113 40% 1 28.08.2026 -
Bohdan Budko AZ Active 106 / 125 40% 1 27.08.2026 -
Adam Tahaui NEC Active 102 / 103 40% 3 26.08.2026 -
Philippe Lanquetin Estoril Praia Active 89 / 102 40% 1 26.08.2026 -
Jeremiah Esajas AZ Active 101 / 106 40% 1 25.08.2026 -
Maxima Goffi LOSC Lille Active 109 / 124 40% 1 25.08.2026 -
Sven Bouland Groningen Active 87 / 104 40% 1 24.08.2026 -
Ethan Apkakou Cambuur Active 84 / 101 40% 1 18.08.2026 -
Elías Báez Atlanta United FC Active 110 / 130 40% 1 18.08.2026 -
Mattéo Escouflaire RC Lens Active 97 / 102 40% 1 11.08.2026 -
Stevan Siba FC Lorient Active 79 / 87 40% 1 05.08.2026 -